Time;durP1;ratioP1;P1;durP2;ratioP2;P2;SDS_P1;SDS_P2;PMS_P1;PMS_P2;Temp;Humidity;BMP_temperature;BMP_pressure;BME280_temperature;BME280_humidity;BME280_pressure;Samples;Min_cycle;Max_cycle;Signal;HPM_P1;HPM_P2
2023/12/07 00:00:52;;;;;;;10.48;6.30;;;;;;;2.43;100.00;101951.41;7398430;19;19915;-74
2023/12/07 00:03:22;;;;;;;12.10;5.65;;;;;;;2.45;100.00;101953.97;7398102;19;19922;-74
2023/12/07 00:05:53;;;;;;;8.55;5.55;;;;;;;2.44;100.00;101962.91;7397198;19;19972;-74
2023/12/07 00:08:21;;;;;;;10.55;5.80;;;;;;;2.43;100.00;101959.38;7396251;19;19922;-74
2023/12/07 00:10:50;;;;;;;13.88;6.03;;;;;;;2.43;100.00;101959.38;7397267;19;19922;-74
2023/12/07 00:13:19;;;;;;;10.48;5.50;;;;;;;2.45;100.00;101956.63;7398306;19;19960;-74
2023/12/07 00:15:47;;;;;;;8.32;6.03;;;;;;;2.46;100.00;101955.69;7396085;19;20324;-74
2023/12/07 00:18:16;;;;;;;8.20;5.72;;;;;;;2.48;100.00;101961.75;7396201;19;19922;-73
2023/12/07 00:20:45;;;;;;;8.20;5.65;;;;;;;2.50;100.00;101957.19;7398284;19;19926;-74
2023/12/07 00:23:16;;;;;;;8.95;5.90;;;;;;;2.49;100.00;101959.00;7396161;19;20270;-74
2023/12/07 00:25:45;;;;;;;10.32;5.75;;;;;;;2.50;100.00;101959.84;7397442;19;19943;-74
2023/12/07 00:28:15;;;;;;;9.95;6.22;;;;;;;2.50;100.00;101958.03;7396784;19;20337;-74
2023/12/07 00:30:43;;;;;;;8.07;4.95;;;;;;;2.49;100.00;101958.16;7399031;19;19943;-74
2023/12/07 00:33:12;;;;;;;10.48;5.30;;;;;;;2.48;100.00;101961.75;7397233;19;20368;-74
2023/12/07 00:35:40;;;;;;;9.38;5.72;;;;;;;2.48;100.00;101959.09;7398142;19;19947;-74
2023/12/07 00:38:09;;;;;;;9.90;6.20;;;;;;;2.48;100.00;101961.75;7397707;19;19926;-74
2023/12/07 00:40:40;;;;;;;9.52;5.55;;;;;;;2.47;100.00;101952.91;7396504;19;20545;-74
2023/12/07 00:43:08;;;;;;;10.10;5.53;;;;;;;2.46;100.00;101948.53;7400713;19;19946;-74
2023/12/07 00:45:37;;;;;;;7.95;6.15;;;;;;;2.48;100.00;101956.44;7398900;19;20302;-73
2023/12/07 00:48:06;;;;;;;8.27;5.70;;;;;;;2.49;100.00;101959.00;7396763;19;19919;-74
2023/12/07 00:50:35;;;;;;;7.75;5.13;;;;;;;2.50;100.00;101960.69;7394458;19;20164;-74
2023/12/07 00:53:04;;;;;;;10.40;5.72;;;;;;;2.49;100.00;101964.31;7397470;19;19947;-74
2023/12/07 00:55:32;;;;;;;9.30;5.15;;;;;;;2.50;100.00;101960.69;7394902;19;19919;-74
2023/12/07 00:58:04;;;;;;;8.55;5.30;;;;;;;2.52;100.00;101966.78;7395897;19;19947;-74
2023/12/07 01:00:32;;;;;;;7.85;5.35;;;;;;;2.50;100.00;101966.00;7395122;19;19934;-74
2023/12/07 01:03:01;;;;;;;9.75;5.53;;;;;;;2.49;100.00;101974.97;7398120;19;19922;-74
2023/12/07 01:05:29;;;;;;;10.90;5.15;;;;;;;2.50;100.00;101967.84;7393546;19;20063;-74
2023/12/07 01:07:58;;;;;;;8.50;5.07;;;;;;;2.49;100.00;101974.09;7394082;19;20302;-74
2023/12/07 01:10:26;;;;;;;12.40;6.10;;;;;;;2.49;100.00;101980.28;7395845;19;19922;-74
2023/12/07 01:12:55;;;;;;;7.43;5.47;;;;;;;2.49;100.00;101974.97;7394498;19;19946;-74
2023/12/07 01:15:26;;;;;;;8.95;5.78;;;;;;;2.52;100.00;101979.22;7395116;19;19918;-74
2023/12/07 01:17:55;;;;;;;9.80;6.20;;;;;;;2.53;100.00;101981.78;7395138;19;19947;-74
2023/12/07 01:20:24;;;;;;;10.35;5.32;;;;;;;2.55;100.00;101981.66;7391847;19;20389;-74
2023/12/07 01:22:52;;;;;;;9.15;5.00;;;;;;;2.56;100.00;101991.38;7392859;19;19911;-74
2023/12/07 01:25:21;;;;;;;9.25;5.18;;;;;;;2.53;100.00;101987.09;7395721;19;20249;-74
2023/12/07 01:27:50;;;;;;;8.00;5.03;;;;;;;2.53;100.00;101996.88;7393036;19;19924;-73
2023/12/07 01:30:20;;;;;;;9.85;5.47;;;;;;;2.50;100.00;101997.91;7396393;19;19994;-73
2023/12/07 01:32:51;;;;;;;7.07;5.00;;;;;;;2.50;100.00;101992.59;7393859;19;19914;-74
2023/12/07 01:35:19;;;;;;;8.25;5.72;;;;;;;2.51;100.00;101988.13;7397134;19;20243;-73
2023/12/07 01:38:08;;;;;;;9.10;5.07;;;;;;;2.51;100.00;101994.31;7392590;19;19919;-74
2023/12/07 01:40:37;;;;;;;9.45;5.93;;;;;;;2.51;100.00;101990.78;7392890;19;19947;-74
2023/12/07 01:43:06;;;;;;;12.85;5.60;;;;;;;2.52;100.00;101989.84;7394559;19;19923;-73
2023/12/07 01:45:34;;;;;;;9.25;5.20;;;;;;;2.52;100.00;102000.50;7394331;19;20321;-73
2023/12/07 01:48:06;;;;;;;7.78;5.03;;;;;;;2.50;100.00;101997.91;7394248;19;19951;-74
2023/12/07 01:50:36;;;;;;;14.35;5.18;;;;;;;2.49;100.00;102001.56;7393109;19;19918;-73
2023/12/07 01:53:06;;;;;;;7.25;5.15;;;;;;;2.48;100.00;102005.16;7393523;19;19951;-74
2023/12/07 01:55:35;;;;;;;7.32;5.32;;;;;;;2.46;100.00;102008.88;7393421;19;19930;-73
2023/12/07 01:58:03;;;;;;;8.40;5.47;;;;;;;2.43;100.00;101996.63;7394812;19;19994;-73
2023/12/07 02:00:52;;;;;;;9.82;5.88;;;;;;;2.43;100.00;101995.75;7392623;19;19957;-74
2023/12/07 02:03:23;;;;;;;7.88;4.93;;;;;;;2.43;100.00;101996.63;7393688;19;20459;-73
2023/12/07 02:05:53;;;;;;;9.38;6.10;;;;;;;2.45;100.00;102001.84;7394939;19;20295;-73
2023/12/07 02:08:22;;;;;;;10.23;5.93;;;;;;;2.47;100.00;102002.59;7393204;19;19927;-73
2023/12/07 02:10:52;;;;;;;10.85;5.50;;;;;;;2.47;100.00;102006.09;7392611;19;20296;-73
2023/12/07 02:13:21;;;;;;;7.32;5.32;;;;;;;2.47;100.00;102011.41;7393202;19;20361;-74
2023/12/07 02:15:50;;;;;;;10.02;5.75;;;;;;;2.46;100.00;102006.22;7391918;19;20341;-73
2023/12/07 02:18:28;;;;;;;6.90;5.13;;;;;;;2.46;100.00;102001.72;7391609;19;19923;-74
2023/12/07 02:21:04;;;;;;;9.18;5.53;;;;;;;2.45;100.00;102008.03;7393206;19;19915;-73
2023/12/07 02:23:35;;;;;;;10.00;5.95;;;;;;;2.45;100.00;102004.50;7392130;19;19922;-73
2023/12/07 02:26:06;;;;;;;8.77;5.40;;;;;;;2.44;100.00;101997.47;7391082;19;20311;-73
2023/12/07 02:28:37;;;;;;;6.80;5.05;;;;;;;2.45;100.00;102000.03;7392720;19;19919;-73
2023/12/07 02:31:06;;;;;;;9.27;5.00;;;;;;;2.47;100.00;102006.09;7390587;19;19926;-74
2023/12/07 02:33:35;;;;;;;11.20;5.25;;;;;;;2.48;100.00;102014.94;7393637;19;19923;-73
2023/12/07 02:36:04;;;;;;;10.60;5.28;;;;;;;2.48;100.00;102005.16;7391893;19;19922;-73
2023/12/07 02:38:32;;;;;;;11.65;5.50;;;;;;;2.46;100.00;102009.69;7392387;19;19951;-73
2023/12/07 02:41:02;;;;;;;8.40;5.32;;;;;;;2.46;100.00;102003.56;7392230;19;19960;-74
2023/12/07 02:43:31;;;;;;;10.52;5.32;;;;;;;2.45;100.00;102007.16;7393120;19;20337;-73
2023/12/07 02:46:02;;;;;;;7.50;4.88;;;;;;;2.45;100.00;102005.38;7391836;19;19947;-73
2023/12/07 02:48:32;;;;;;;7.22;4.57;;;;;;;2.48;100.00;102006.97;7392146;19;19965;-73
2023/12/07 02:51:00;;;;;;;8.40;4.22;;;;;;;2.49;100.00;102003.34;7392970;19;19922;-74
2023/12/07 02:53:29;;;;;;;7.00;4.90;;;;;;;2.50;100.00;102010.41;7393330;19;19926;-73
2023/12/07 02:55:57;;;;;;;8.52;5.30;;;;;;;2.51;100.00;102018.25;7394798;19;19942;-73
2023/12/07 02:58:26;;;;;;;7.90;5.35;;;;;;;2.49;100.00;102008.69;7394745;19;20277;-74
2023/12/07 03:00:54;;;;;;;7.97;5.20;;;;;;;2.48;100.00;102012.28;7391835;19;19915;-73
2023/12/07 03:03:45;;;;;;;10.55;5.38;;;;;;;2.45;100.00;102007.16;7390023;19;19926;-74
2023/12/07 03:06:15;;;;;;;8.32;5.13;;;;;;;2.44;100.00;102006.31;7391109;19;20022;-73
2023/12/07 03:08:44;;;;;;;8.13;5.32;;;;;;;2.44;100.00;102006.31;7386263;19;19923;-74
2023/12/07 03:11:12;;;;;;;8.18;4.72;;;;;;;2.44;100.00;102003.66;7390873;19;19919;-73
2023/12/07 03:13:41;;;;;;;8.32;5.28;;;;;;;2.45;100.00;102008.03;7391174;19;19919;-74
2023/12/07 03:16:09;;;;;;;11.55;5.53;;;;;;;2.46;100.00;102007.03;7390885;19;19934;-73
2023/12/07 03:18:38;;;;;;;7.28;4.93;;;;;;;2.46;100.00;102008.88;7388588;19;19951;-73
2023/12/07 03:21:09;;;;;;;8.82;5.40;;;;;;;2.45;100.00;102013.34;7392024;19;21607;-74
2023/12/07 03:23:38;;;;;;;7.05;4.80;;;;;;;2.46;100.00;102014.19;7390215;19;20344;-74
2023/12/07 03:26:07;;;;;;;6.35;4.68;;;;;;;2.47;100.00;102011.41;7392016;19;19922;-73
2023/12/07 03:28:35;;;;;;;8.73;5.22;;;;;;;2.45;100.00;102009.81;7389608;19;19951;-73
2023/12/07 03:31:04;;;;;;;9.88;5.03;;;;;;;2.44;100.00;102018.75;7392665;19;19923;-74
2023/12/07 03:33:33;;;;;;;9.05;4.55;;;;;;;2.44;100.00;102019.59;7390282;19;20690;-74
2023/12/07 03:36:02;;;;;;;8.98;4.68;;;;;;;2.45;100.00;102009.81;7393176;19;20324;-74
2023/12/07 03:38:33;;;;;;;7.68;5.10;;;;;;;2.47;100.00;102019.41;7395992;19;19926;-74
2023/12/07 03:41:01;;;;;;;12.55;5.55;;;;;;;2.45;100.00;102010.69;7396781;19;19923;-74
2023/12/07 03:43:30;;;;;;;9.27;5.18;;;;;;;2.42;100.00;102016.16;7398405;19;19926;-74
2023/12/07 03:45:58;;;;;;;7.55;4.35;;;;;;;2.42;100.00;102010.00;7396370;19;19930;-74
2023/12/07 03:48:27;;;;;;;8.57;4.45;;;;;;;2.42;100.00;102016.16;7398892;19;22231;-74
2023/12/07 03:50:56;;;;;;;10.48;5.40;;;;;;;2.42;100.00;102017.97;7395361;19;19926;-75
2023/12/07 03:53:24;;;;;;;8.20;4.53;;;;;;;2.40;100.00;102014.56;7397023;19;19925;-74
2023/12/07 03:55:55;;;;;;;8.88;5.25;;;;;;;2.40;100.00;102017.22;7396619;19;19922;-74
2023/12/07 03:58:24;;;;;;;8.77;4.75;;;;;;;2.40;100.00;102017.22;7398431;19;19930;-73
2023/12/07 04:00:53;;;;;;;6.90;4.55;;;;;;;2.42;100.00;102015.31;7399484;19;19922;-74
2023/12/07 04:03:21;;;;;;;7.65;4.68;;;;;;;2.41;100.00;102006.50;7397277;19;19922;-74
2023/12/07 04:05:50;;;;;;;7.65;4.85;;;;;;;2.42;100.00;102013.50;7397908;19;19926;-74
2023/12/07 04:08:18;;;;;;;7.47;4.40;;;;;;;2.39;100.00;102008.41;7396563;19;19923;-74
2023/12/07 04:10:47;;;;;;;9.65;4.80;;;;;;;2.39;100.00;102013.72;7398346;19;20039;-74
2023/12/07 04:13:18;;;;;;;8.25;4.57;;;;;;;2.41;100.00;102009.16;7396292;19;19934;-74
2023/12/07 04:16:08;;;;;;;10.38;4.93;;;;;;;2.41;100.00;102017.16;7395630;19;19927;-75
2023/12/07 04:18:37;;;;;;;6.65;4.60;;;;;;;2.41;100.00;102014.50;7397597;19;19996;-74
2023/12/07 04:21:06;;;;;;;8.90;4.60;;;;;;;2.40;100.00;102018.09;7396444;19;19922;-74
2023/12/07 04:23:36;;;;;;;5.95;4.20;;;;;;;2.43;100.00;102020.53;7395553;19;19951;-74
2023/12/07 04:26:05;;;;;;;6.88;4.00;;;;;;;2.45;100.00;102025.78;7397478;19;20275;-74
2023/12/07 04:28:36;;;;;;;7.78;4.47;;;;;;;2.44;100.00;102022.25;7397114;19;19918;-74
2023/12/07 04:31:06;;;;;;;7.18;4.45;;;;;;;2.45;100.00;102023.97;7395821;19;19923;-74
2023/12/07 04:33:55;;;;;;;10.65;4.13;;;;;;;2.44;100.00;102027.59;7396318;19;20803;-74
2023/12/07 04:36:23;;;;;;;8.70;4.22;;;;;;;2.43;100.00;102033.84;7397606;19;19919;-74
2023/12/07 04:38:52;;;;;;;8.60;4.72;;;;;;;2.44;100.00;102029.38;7396195;19;20278;-74
2023/12/07 04:41:20;;;;;;;7.43;4.57;;;;;;;2.44;100.00;102024.91;7396644;19;19927;-74
2023/12/07 04:43:51;;;;;;;6.70;4.38;;;;;;;2.44;100.00;102030.25;7395780;19;19944;-74
2023/12/07 04:46:20;;;;;;;6.38;4.20;;;;;;;2.45;100.00;102034.63;7397110;19;19915;-74
2023/12/07 04:48:46;;;;;;;6.68;4.25;;;;;;;2.47;100.00;102034.50;7395002;19;20357;-74
2023/12/07 04:51:14;;;;;;;5.45;4.18;;;;;;;2.48;100.00;102038.88;7396375;19;19971;-74
2023/12/07 04:53:43;;;;;;;7.32;4.70;;;;;;;2.48;100.00;102042.38;7397145;19;20245;-74
2023/12/07 04:56:12;;;;;;;6.72;4.32;;;;;;;2.47;100.00;102043.34;7397509;19;19934;-74
2023/12/07 04:58:40;;;;;;;6.70;4.13;;;;;;;2.48;100.00;102037.06;7397073;19;19947;-74
2023/12/07 05:01:12;;;;;;;9.63;4.30;;;;;;;2.49;100.00;102028.16;7394766;19;20319;-74
2023/12/07 05:03:40;;;;;;;6.38;4.25;;;;;;;2.49;100.00;102030.81;7396595;19;20260;-74
2023/12/07 05:06:10;;;;;;;5.47;4.10;;;;;;;2.49;100.00;102028.16;7398318;19;20611;-73
2023/12/07 05:08:38;;;;;;;8.15;4.65;;;;;;;2.49;100.00;102033.47;7397418;19;19936;-74
2023/12/07 05:11:07;;;;;;;8.98;4.97;;;;;;;2.49;100.00;102033.47;7399498;19;19958;-75
2023/12/07 05:13:36;;;;;;;6.22;3.83;;;;;;;2.48;100.00;102031.75;7397125;19;19918;-75
2023/12/07 05:16:27;;;;;;;11.68;5.22;;;;;;;2.48;100.00;102029.09;7393268;19;19961;-73
2023/12/07 05:18:56;;;;;;;6.38;3.70;;;;;;;2.48;100.00;102038.88;7396395;19;19929;-73
2023/12/07 05:21:24;;;;;;;9.23;4.28;;;;;;;2.49;100.00;102032.63;7395842;19;19919;-75
2023/12/07 05:23:53;;;;;;;6.90;3.80;;;;;;;2.48;100.00;102034.41;7398808;19;20367;-75
2023/12/07 05:26:21;;;;;;;5.80;4.00;;;;;;;2.50;100.00;102029.84;7396327;19;19945;-76
2023/12/07 05:28:50;;;;;;;11.85;5.55;;;;;;;2.50;100.00;102034.31;7396528;19;20565;-75
2023/12/07 05:31:19;;;;;;;5.25;3.85;;;;;;;2.49;100.00;102033.47;7395387;19;19942;-75
2023/12/07 05:33:51;;;;;;;7.70;4.22;;;;;;;2.48;100.00;102031.75;7397468;19;19922;-75
2023/12/07 05:36:19;;;;;;;6.40;4.07;;;;;;;2.47;100.00;102040.69;7395857;19;19922;-76
2023/12/07 05:38:48;;;;;;;5.57;4.03;;;;;;;2.48;100.00;102036.22;7396460;19;19947;-75
2023/12/07 05:41:17;;;;;;;5.85;3.95;;;;;;;2.45;100.00;102042.59;7394467;19;19929;-75
2023/12/07 05:43:45;;;;;;;9.25;5.15;;;;;;;2.45;100.00;102039.06;7396802;19;19915;-75
2023/12/07 05:46:14;;;;;;;5.10;4.07;;;;;;;2.43;100.00;102038.31;7394803;19;19926;-75
2023/12/07 05:48:42;;;;;;;6.30;4.20;;;;;;;2.43;100.00;102033.84;7396769;19;20455;-76
2023/12/07 05:51:20;;;;;;;7.13;4.35;;;;;;;2.41;100.00;102035.75;7392926;19;20038;-75
2023/12/07 05:53:49;;;;;;;7.43;4.30;;;;;;;2.43;100.00;102031.19;7394280;19;19922;-73
2023/12/07 05:56:38;;;;;;;6.25;4.10;;;;;;;2.41;100.00;102033.09;7394371;19;19925;-73
2023/12/07 05:59:07;;;;;;;5.63;4.18;;;;;;;2.43;100.00;102036.50;7396574;19;19925;-74
2023/12/07 06:01:35;;;;;;;10.35;4.55;;;;;;;2.41;100.00;102038.41;7394115;19;19925;-73
2023/12/07 06:04:04;;;;;;;9.30;4.65;;;;;;;2.41;100.00;102033.09;7393355;19;19918;-73
2023/12/07 06:06:35;;;;;;;7.63;4.45;;;;;;;2.41;100.00;102038.41;7394005;19;19926;-73
2023/12/07 06:09:05;;;;;;;6.95;3.83;;;;;;;2.40;100.00;102039.38;7396079;19;19927;-73
2023/12/07 06:11:33;;;;;;;8.85;4.53;;;;;;;2.40;100.00;102036.69;7394552;19;19930;-73
2023/12/07 06:14:02;;;;;;;8.55;4.70;;;;;;;2.40;100.00;102038.50;7393359;19;19919;-73
2023/12/07 06:16:31;;;;;;;10.80;4.72;;;;;;;2.39;100.00;102032.31;7394020;19;19925;-73
2023/12/07 06:18:59;;;;;;;8.60;4.80;;;;;;;2.39;100.00;102034.13;7394654;19;19923;-73
2023/12/07 06:21:29;;;;;;;8.55;5.07;;;;;;;2.38;100.00;102035.06;7391913;19;19927;-73
2023/12/07 06:24:01;;;;;;;10.82;4.82;;;;;;;2.37;100.00;102036.91;7396179;19;19923;-73
2023/12/07 06:26:30;;;;;;;10.32;5.00;;;;;;;2.36;100.00;102040.50;7394136;19;20261;-73
2023/12/07 06:28:59;;;;;;;9.07;5.47;;;;;;;2.36;100.00;102026.34;7393628;19;19958;-73
2023/12/07 06:31:27;;;;;;;9.35;5.40;;;;;;;2.37;100.00;102028.94;7393256;19;19947;-74
2023/12/07 06:33:56;;;;;;;8.25;5.07;;;;;;;2.34;100.00;102034.41;7394735;19;19914;-73
2023/12/07 06:36:26;;;;;;;10.00;5.40;;;;;;;2.33;100.00;102031.88;7392505;19;19919;-73
2023/12/07 06:38:55;;;;;;;10.93;5.72;;;;;;;2.32;100.00;102039.00;7393359;19;19994;-74
2023/12/07 06:41:26;;;;;;;10.13;4.78;;;;;;;2.33;100.00;102039.84;7395388;19;19947;-74
2023/12/07 06:43:55;;;;;;;8.30;5.22;;;;;;;2.32;100.00;102036.34;7393777;19;20301;-73
2023/12/07 06:46:23;;;;;;;11.93;5.88;;;;;;;2.31;100.00;102041.72;7391586;19;20321;-74
2023/12/07 06:48:52;;;;;;;8.38;5.13;;;;;;;2.29;100.00;102055.09;7392189;19;19947;-74
2023/12/07 06:51:20;;;;;;;11.25;6.50;;;;;;;2.33;100.00;102053.16;7392254;19;19927;-74
2023/12/07 06:53:49;;;;;;;9.07;5.07;;;;;;;2.32;100.00;102052.28;7389570;19;19922;-74
2023/12/07 06:56:18;;;;;;;6.70;4.32;;;;;;;2.32;100.00;102052.28;7391281;19;20290;-74
2023/12/07 06:58:49;;;;;;;8.90;5.30;;;;;;;2.34;100.00;102055.69;7390107;19;19926;-74
2023/12/07 07:01:17;;;;;;;9.60;5.45;;;;;;;2.33;100.00;102061.94;7388900;19;19922;-74
2023/12/07 07:03:46;;;;;;;8.40;5.25;;;;;;;2.32;100.00;102060.25;7389562;19;19930;-74
2023/12/07 07:06:15;;;;;;;11.30;5.47;;;;;;;2.30;100.00;102048.84;7389276;19;19919;-74
2023/12/07 07:08:45;;;;;;;11.02;6.18;;;;;;;2.27;100.00;102057.88;7389090;19;20312;-73
2023/12/07 07:11:16;;;;;;;8.23;5.35;;;;;;;2.26;100.00;102058.81;7392884;19;19951;-73
2023/12/07 07:13:44;;;;;;;12.18;5.40;;;;;;;2.26;100.00;102057.97;7397865;19;19929;-73
2023/12/07 07:16:16;;;;;;;11.13;5.88;;;;;;;2.28;100.00;102064.06;7396095;19;19952;-73
2023/12/07 07:18:44;;;;;;;12.05;5.45;;;;;;;2.30;100.00;102064.81;7398383;19;19943;-73
2023/12/07 07:21:13;;;;;;;12.27;6.78;;;;;;;2.27;100.00;102063.19;7398259;19;19943;-72
2023/12/07 07:23:41;;;;;;;12.68;6.18;;;;;;;2.26;100.00;102068.59;7398083;19;20377;-73
2023/12/07 07:26:10;;;;;;;9.45;5.50;;;;;;;2.26;100.00;102072.13;7397551;19;19929;-74
2023/12/07 07:28:39;;;;;;;9.75;5.60;;;;;;;2.27;100.00;102071.19;7394812;19;20337;-73
2023/12/07 07:31:08;;;;;;;12.18;6.28;;;;;;;2.26;100.00;102074.78;7395336;19;19918;-75
2023/12/07 07:33:39;;;;;;;11.38;5.50;;;;;;;2.27;100.00;102073.84;7396691;19;19922;-76
2023/12/07 07:36:11;;;;;;;11.88;6.05;;;;;;;2.30;100.00;102070.13;7397886;19;19982;-75
2023/12/07 07:38:40;;;;;;;12.23;5.82;;;;;;;2.31;100.00;102071.84;7396994;19;19952;-73
2023/12/07 07:41:09;;;;;;;12.60;5.82;;;;;;;2.33;100.00;102077.06;7397565;19;19924;-73
2023/12/07 07:43:37;;;;;;;10.65;5.43;;;;;;;2.32;100.00;102078.00;7396542;19;19951;-73
2023/12/07 07:46:06;;;;;;;10.40;5.57;;;;;;;2.32;100.00;102073.56;7396795;19;20329;-73
2023/12/07 07:48:35;;;;;;;10.07;5.82;;;;;;;2.35;100.00;102077.81;7396249;19;20374;-73
2023/12/07 07:51:07;;;;;;;11.03;5.87;;;;;;;2.33;100.00;102080.56;7256418;19;2780133;-73
2023/12/07 07:53:36;;;;;;;12.00;6.13;;;;;;;2.34;100.00;102084.94;7397587;19;19922;-73
2023/12/07 07:56:25;;;;;;;9.50;5.28;;;;;;;2.34;100.00;102082.28;7397126;19;19946;-73
2023/12/07 07:58:54;;;;;;;8.45;4.95;;;;;;;2.36;100.00;102083.06;7399114;19;19925;-73
2023/12/07 08:01:22;;;;;;;12.30;5.70;;;;;;;2.37;100.00;102083.91;7396958;19;19918;-73
2023/12/07 08:03:51;;;;;;;12.93;7.88;;;;;;;2.37;100.00;102091.88;7399607;19;19950;-73
2023/12/07 08:06:22;;;;;;;11.82;6.20;;;;;;;2.36;100.00;102091.03;7398306;19;20328;-73
2023/12/07 08:08:52;;;;;;;11.18;5.80;;;;;;;2.37;100.00;102083.91;7399735;19;20787;-73
2023/12/07 08:11:20;;;;;;;10.05;5.70;;;;;;;2.39;100.00;102092.63;7393977;19;19919;-73
2023/12/07 08:13:50;;;;;;;12.20;6.22;;;;;;;2.41;100.00;102085.44;7398733;19;19957;-73
2023/12/07 08:16:19;;;;;;;11.68;6.10;;;;;;;2.41;100.00;102083.63;7398456;19;19919;-73
2023/12/07 08:18:47;;;;;;;12.65;6.13;;;;;;;2.41;100.00;102091.59;7399159;19;19970;-73
2023/12/07 08:21:25;;;;;;;10.93;6.53;;;;;;;2.41;100.00;102096.94;7398114;19;19922;-73
2023/12/07 08:23:54;;;;;;;13.45;6.10;;;;;;;2.41;100.00;102090.75;7398983;19;19922;-73
2023/12/07 08:26:22;;;;;;;10.15;5.68;;;;;;;2.40;100.00;102097.88;7397292;19;19925;-73
2023/12/07 08:28:53;;;;;;;10.52;6.05;;;;;;;2.42;100.00;102100.41;7396221;19;19919;-73
2023/12/07 08:31:23;;;;;;;13.15;7.03;;;;;;;2.42;100.00;102101.28;7397940;19;19918;-73
2023/12/07 08:34:12;;;;;;;11.45;6.35;;;;;;;2.45;100.00;102094.94;7397138;19;19926;-73
2023/12/07 08:36:44;;;;;;;12.40;6.22;;;;;;;2.45;100.00;102082.47;7398416;19;19960;-73
2023/12/07 08:39:13;;;;;;;12.68;6.70;;;;;;;2.49;100.00;102091.13;7395276;19;19950;-73
2023/12/07 08:41:42;;;;;;;11.82;6.55;;;;;;;2.53;100.00;102093.50;7397969;19;19915;-73
2023/12/07 08:44:11;;;;;;;12.05;6.25;;;;;;;2.56;100.00;102090.63;7395703;19;20379;-73
2023/12/07 08:46:40;;;;;;;13.88;6.07;;;;;;;2.58;100.00;102082.56;7399723;19;19923;-72
2023/12/07 08:49:09;;;;;;;12.38;6.30;;;;;;;2.60;100.00;102083.31;7396621;19;19951;-73
2023/12/07 08:51:38;;;;;;;12.82;6.68;;;;;;;2.59;100.00;102085.13;7400212;19;20217;-73
2023/12/07 08:54:09;;;;;;;12.38;6.22;;;;;;;2.60;100.00;102091.28;7395899;19;19922;-74
2023/12/07 08:56:38;;;;;;;10.98;6.13;;;;;;;2.60;100.00;102089.50;7399076;19;19978;-74
2023/12/07 08:59:06;;;;;;;11.65;6.53;;;;;;;2.62;100.00;102081.44;7398407;19;19919;-74
2023/12/07 09:01:35;;;;;;;12.95;6.68;;;;;;;2.69;100.00;102083.59;7396519;19;19923;-74
2023/12/07 09:04:05;;;;;;;12.20;6.80;;;;;;;2.73;100.00;102089.56;7397954;19;19923;-74
2023/12/07 09:06:33;;;;;;;12.20;6.82;;;;;;;2.76;100.00;102088.53;7395704;19;19926;-74
2023/12/07 09:09:02;;;;;;;12.63;7.05;;;;;;;2.78;100.00;102078.66;7396362;19;19926;-74
2023/12/07 09:11:33;;;;;;;14.98;7.13;;;;;;;2.81;100.00;102086.41;7395168;19;19918;-74
2023/12/07 09:14:02;;;;;;;12.98;6.70;;;;;;;2.81;100.00;102092.59;7398636;19;19953;-74
2023/12/07 09:16:30;;;;;;;13.60;6.88;;;;;;;2.82;100.00;102082.81;7397245;19;19926;-74
2023/12/07 09:18:59;;;;;;;13.48;6.47;;;;;;;2.83;100.00;102081.88;7397847;19;19968;-74
2023/12/07 09:21:27;;;;;;;16.15;7.35;;;;;;;2.84;100.00;102084.44;7397491;19;19918;-74
2023/12/07 09:23:56;;;;;;;12.63;7.03;;;;;;;2.82;100.00;102088.13;7397409;19;19943;-74
2023/12/07 09:26:24;;;;;;;14.13;7.68;;;;;;;2.79;100.00;102091.88;7397045;19;19927;-74
2023/12/07 09:28:55;;;;;;;14.10;7.68;;;;;;;2.76;100.00;102085.88;7397492;19;20286;-74
2023/12/07 09:31:24;;;;;;;14.25;8.07;;;;;;;2.74;100.00;102078.00;7397034;19;20353;-74
2023/12/07 09:33:53;;;;;;;12.90;7.45;;;;;;;2.77;100.00;102084.91;7394298;19;20724;-74
2023/12/07 09:36:23;;;;;;;13.10;7.78;;;;;;;2.81;100.00;102084.63;7396298;19;19922;-73
2023/12/07 09:38:53;;;;;;;14.05;7.78;;;;;;;2.87;100.00;102089.56;7397018;19;19925;-75
2023/12/07 09:41:22;;;;;;;16.17;8.25;;;;;;;2.91;100.00;102099.06;7399693;19;20563;-75
2023/12/07 09:43:51;;;;;;;17.95;8.48;;;;;;;2.95;100.00;102097.06;7397276;19;19978;-73
2023/12/07 09:46:22;;;;;;;19.35;9.43;;;;;;;2.98;100.00;102102.16;7396410;19;19943;-73
2023/12/07 09:48:51;;;;;;;20.98;10.23;;;;;;;3.00;100.00;102108.25;7395170;19;20370;-72
2023/12/07 09:51:20;;;;;;;19.83;10.00;;;;;;;3.01;100.00;102109.97;7395734;19;20369;-72
2023/12/07 09:53:54;;;;;;;16.40;9.40;;;;;;;3.05;100.00;102104.38;7394324;19;19926;-72
2023/12/07 09:56:23;;;;;;;16.92;9.10;;;;;;;3.15;100.00;102101.94;7396756;19;20430;-75
2023/12/07 09:58:51;;;;;;;17.02;8.48;;;;;;;3.26;100.00;102103.91;7395875;19;19918;-75
2023/12/07 10:01:23;;;;;;;17.20;9.10;;;;;;;3.32;100.00;102099.06;7393276;19;19958;-75
2023/12/07 10:03:51;;;;;;;18.83;8.38;;;;;;;3.33;100.00;102099.88;7396710;19;19951;-75
2023/12/07 10:06:20;;;;;;;15.40;8.95;;;;;;;3.30;100.00;102102.75;7394218;19;19932;-75
2023/12/07 10:08:48;;;;;;;18.20;8.75;;;;;;;3.23;100.00;102097.00;7395609;19;19951;-75
2023/12/07 10:11:18;;;;;;;16.40;9.35;;;;;;;3.24;100.00;102098.69;7394466;19;19951;-73
2023/12/07 10:13:47;;;;;;;14.95;8.38;;;;;;;3.19;100.00;102104.31;7394155;19;19922;-74
2023/12/07 10:16:19;;;;;;;14.77;8.88;;;;;;;3.14;100.00;102111.75;7393225;19;19947;-74
2023/12/07 10:18:50;;;;;;;15.43;8.30;;;;;;;3.11;99.97;102101.28;7395971;19;19951;-74
2023/12/07 10:21:19;;;;;;;16.38;9.07;;;;;;;3.11;100.00;102103.09;7394893;19;19930;-74
2023/12/07 10:23:50;;;;;;;14.50;8.23;;;;;;;3.11;100.00;102093.28;7392607;19;20713;-73
2023/12/07 10:26:21;;;;;;;14.43;8.90;;;;;;;3.15;100.00;102093.94;7393183;19;19922;-74
2023/12/07 10:28:54;;;;;;;14.10;8.05;;;;;;;3.18;100.00;102096.44;7388859;19;19926;-73
2023/12/07 10:31:23;;;;;;;14.30;8.48;;;;;;;3.16;100.00;102088.53;7395671;19;19950;-73
2023/12/07 10:33:55;;;;;;;15.05;8.00;;;;;;;3.19;100.00;102083.00;7391632;19;20584;-73
2023/12/07 10:36:23;;;;;;;;;;;;;;;3.16;100.00;102074.38;7394072;19;19916;-74
2023/12/07 10:38:53;;;;;;;14.23;7.68;;;;;;;3.26;100.00;102083.47;7393518;19;19947;-74
2023/12/07 10:41:24;;;;;;;14.90;8.23;;;;;;;3.32;100.00;102064.44;7392548;19;19938;-73
2023/12/07 10:43:55;;;;;;;16.15;8.02;;;;;;;3.36;99.74;102068.59;7393182;19;20011;-74
2023/12/07 10:46:24;;;;;;;14.52;8.18;;;;;;;3.38;99.65;102069.34;7395896;19;19951;-73
2023/12/07 10:49:02;;;;;;;13.63;8.57;;;;;;;3.40;99.40;102064.78;7399715;19;19943;-74
2023/12/07 10:51:38;;;;;;;17.77;9.32;;;;;;;3.47;99.33;102065.22;7399313;19;19938;-74
2023/12/07 10:54:11;;;;;;;15.18;7.97;;;;;;;3.56;99.46;102069.94;7397265;19;19939;-74
2023/12/07 10:56:42;;;;;;;17.13;8.95;;;;;;;3.64;99.13;102063.13;7395234;19;19929;-74
2023/12/07 10:59:13;;;;;;;16.15;8.57;;;;;;;3.73;98.70;102055.47;7398112;19;20328;-75
2023/12/07 11:01:42;;;;;;;13.05;7.75;;;;;;;3.82;98.25;102047.72;7396618;19;19929;-73
2023/12/07 11:04:14;;;;;;;17.70;8.40;;;;;;;3.93;98.24;102042.47;7397976;19;19926;-73
2023/12/07 11:06:45;;;;;;;14.13;7.97;;;;;;;4.03;97.91;102048.91;7394568;19;20278;-75
2023/12/07 11:09:19;;;;;;;20.35;9.38;;;;;;;4.09;97.08;102047.63;7398244;19;20282;-75
2023/12/07 11:12:15;;;;;;;14.88;8.35;;;;;;;4.16;96.89;102032.91;7397996;19;19918;-75
2023/12/07 11:14:44;;;;;;;17.60;10.10;;;;;;;4.26;96.72;102036.63;7398443;19;19915;-74
2023/12/07 11:17:12;;;;;;;18.27;9.75;;;;;;;4.32;96.73;102046.00;7397454;19;19926;-76
2023/12/07 11:19:49;;;;;;;14.50;8.88;;;;;;;4.35;95.86;102029.78;7397285;19;19922;-76
2023/12/07 11:22:18;;;;;;;14.23;8.75;;;;;;;4.38;95.52;102035.75;7399353;19;19931;-75
2023/12/07 11:25:05;;;;;;;17.05;9.20;;;;;;;4.36;94.96;102037.66;7396130;19;19943;-74
2023/12/07 11:27:35;;;;;;;15.70;9.65;;;;;;;4.43;95.52;102024.75;7398157;19;19918;-76
2023/12/07 11:30:06;;;;;;;17.48;9.55;;;;;;;4.47;95.63;102028.91;7396608;19;19947;-74
2023/12/07 11:32:35;;;;;;;12.32;8.27;;;;;;;4.51;95.22;102020.59;7397455;19;19926;-74
2023/12/07 11:35:08;;;;;;;14.55;9.13;;;;;;;4.55;94.27;102024.75;7399340;19;19961;-73